Terminal Aerodrome Forecast
Issued by NWS

Home | Current Version | Previous Version | Text Only | Print | Product List | Glossary On
Versions: 1 2 3 4 5 6 7 8 9 10 11 12 13 14 15 16 17
000
FTUS42 TJSJ 200400 AAC
TAFJSJ
TAF AMD
TJSJ 200411Z 2004/2024 08009KT P6SM VCTS SCT025 BKN040CB
      TEMPO 2004/2006 SHRA SCT020 BKN035
     FM201400 06014KT P6SM VCSH FEW022 SCT040
     FM202200 08007KT P6SM SCT030=

USA.gov is the U.S. government's official web portal to all federal, state and local government web resources and services.